sensor_id;sensor_type;location;lat;lon;timestamp;temperature;humidity
16700;DHT22;8466;52.286;21.124;2022-10-17T00:01:56;11.10;99.90
16700;DHT22;8466;52.286;21.124;2022-10-17T00:04:25;11.10;99.90
16700;DHT22;8466;52.286;21.124;2022-10-17T00:06:55;11.00;99.90
16700;DHT22;8466;52.286;21.124;2022-10-17T00:09:23;11.00;99.90
16700;DHT22;8466;52.286;21.124;2022-10-17T00:11:52;11.00;99.90
16700;DHT22;8466;52.286;21.124;2022-10-17T00:14:21;11.00;99.90
16700;DHT22;8466;52.286;21.124;2022-10-17T00:16:49;11.00;99.90
16700;DHT22;8466;52.286;21.124;2022-10-17T00:19:18;11.00;99.90
16700;DHT22;8466;52.286;21.124;2022-10-17T00:21:48;11.00;99.90
16700;DHT22;8466;52.286;21.124;2022-10-17T00:24:18;11.00;99.90
16700;DHT22;8466;52.286;21.124;2022-10-17T00:26:47;11.00;99.90
16700;DHT22;8466;52.286;21.124;2022-10-17T00:29:15;11.00;99.90
16700;DHT22;8466;52.286;21.124;2022-10-17T00:31:44;11.00;99.90
16700;DHT22;8466;52.286;21.124;2022-10-17T00:34:13;10.90;99.90
16700;DHT22;8466;52.286;21.124;2022-10-17T00:36:42;10.90;99.90
16700;DHT22;8466;52.286;21.124;2022-10-17T00:39:10;10.90;99.90
16700;DHT22;8466;52.286;21.124;2022-10-17T00:41:41;11.00;99.90
16700;DHT22;8466;52.286;21.124;2022-10-17T00:47:15;11.00;99.90
16700;DHT22;8466;52.286;21.124;2022-10-17T00:49:45;11.20;99.90
16700;DHT22;8466;52.286;21.124;2022-10-17T00:52:16;11.30;99.90
16700;DHT22;8466;52.286;21.124;2022-10-17T00:54:48;11.30;99.90
16700;DHT22;8466;52.286;21.124;2022-10-17T00:57:20;11.40;99.90
16700;DHT22;8466;52.286;21.124;2022-10-17T00:59:52;11.50;99.90
16700;DHT22;8466;52.286;21.124;2022-10-17T01:02:22;11.60;99.90
16700;DHT22;8466;52.286;21.124;2022-10-17T01:04:52;11.70;99.90
16700;DHT22;8466;52.286;21.124;2022-10-17T01:07:22;11.70;99.90
16700;DHT22;8466;52.286;21.124;2022-10-17T01:09:51;11.70;99.90
16700;DHT22;8466;52.286;21.124;2022-10-17T01:12:23;11.60;99.90
16700;DHT22;8466;52.286;21.124;2022-10-17T01:15:02;11.60;99.90
16700;DHT22;8466;52.286;21.124;2022-10-17T01:17:38;11.50;99.90
16700;DHT22;8466;52.286;21.124;2022-10-17T01:20:42;11.50;99.90
16700;DHT22;8466;52.286;21.124;2022-10-17T01:26:14;11.40;99.90
16700;DHT22;8466;52.286;21.124;2022-10-17T01:32:09;11.40;99.90
16700;DHT22;8466;52.286;21.124;2022-10-17T01:34:45;11.30;99.90
16700;DHT22;8466;52.286;21.124;2022-10-17T01:37:19;11.30;99.90
16700;DHT22;8466;52.286;21.124;2022-10-17T01:39:51;11.30;99.90
16700;DHT22;8466;52.286;21.124;2022-10-17T01:42:24;11.20;99.90
16700;DHT22;8466;52.286;21.124;2022-10-17T01:44:57;11.20;99.90
16700;DHT22;8466;52.286;21.124;2022-10-17T01:47:31;11.20;99.90
16700;DHT22;8466;52.286;21.124;2022-10-17T01:50:04;11.20;99.90
16700;DHT22;8466;52.286;21.124;2022-10-17T01:52:37;11.20;99.90
16700;DHT22;8466;52.286;21.124;2022-10-17T01:55:11;11.20;99.90
16700;DHT22;8466;52.286;21.124;2022-10-17T01:57:44;11.20;99.90
16700;DHT22;8466;52.286;21.124;2022-10-17T02:00:16;11.20;99.90
16700;DHT22;8466;52.286;21.124;2022-10-17T02:02:50;11.10;99.90
16700;DHT22;8466;52.286;21.124;2022-10-17T02:05:23;11.10;99.90
16700;DHT22;8466;52.286;21.124;2022-10-17T02:07:53;11.10;99.90
16700;DHT22;8466;52.286;21.124;2022-10-17T02:10:29;11.10;99.90
16700;DHT22;8466;52.286;21.124;2022-10-17T02:13:05;11.10;99.90
16700;DHT22;8466;52.286;21.124;2022-10-17T02:21:44;11.00;99.90
16700;DHT22;8466;52.286;21.124;2022-10-17T02:24:19;11.00;99.90
16700;DHT22;8466;52.286;21.124;2022-10-17T02:26:55;11.00;99.90
16700;DHT22;8466;52.286;21.124;2022-10-17T02:29:33;10.90;99.90
16700;DHT22;8466;52.286;21.124;2022-10-17T02:32:06;10.90;99.90
16700;DHT22;8466;52.286;21.124;2022-10-17T02:34:41;10.80;99.90
16700;DHT22;8466;52.286;21.124;2022-10-17T02:37:14;10.80;99.90
16700;DHT22;8466;52.286;21.124;2022-10-17T02:39:44;10.80;99.90
16700;DHT22;8466;52.286;21.124;2022-10-17T02:42:13;10.70;99.90
16700;DHT22;8466;52.286;21.124;2022-10-17T02:44:44;10.70;99.90
16700;DHT22;8466;52.286;21.124;2022-10-17T02:47:17;10.70;99.90
16700;DHT22;8466;52.286;21.124;2022-10-17T02:49:50;10.80;99.90
16700;DHT22;8466;52.286;21.124;2022-10-17T02:52:24;10.80;99.90
16700;DHT22;8466;52.286;21.124;2022-10-17T02:54:58;10.80;99.90
16700;DHT22;8466;52.286;21.124;2022-10-17T02:57:31;10.80;99.90
16700;DHT22;8466;52.286;21.124;2022-10-17T03:00:05;10.80;99.90
16700;DHT22;8466;52.286;21.124;2022-10-17T03:02:39;10.80;99.90
16700;DHT22;8466;52.286;21.124;2022-10-17T03:05:11;10.80;99.90
16700;DHT22;8466;52.286;21.124;2022-10-17T03:07:40;10.80;99.90
16700;DHT22;8466;52.286;21.124;2022-10-17T03:10:09;10.80;99.90
16700;DHT22;8466;52.286;21.124;2022-10-17T03:12:38;10.80;99.90
16700;DHT22;8466;52.286;21.124;2022-10-17T03:15:08;10.80;99.90
16700;DHT22;8466;52.286;21.124;2022-10-17T03:17:37;10.80;99.90
16700;DHT22;8466;52.286;21.124;2022-10-17T03:20:06;10.90;99.90
16700;DHT22;8466;52.286;21.124;2022-10-17T03:22:36;10.90;99.90
16700;DHT22;8466;52.286;21.124;2022-10-17T03:25:06;10.80;99.90
16700;DHT22;8466;52.286;21.124;2022-10-17T03:27:34;10.80;99.90
16700;DHT22;8466;52.286;21.124;2022-10-17T03:30:04;10.80;99.90
16700;DHT22;8466;52.286;21.124;2022-10-17T03:32:33;10.80;99.90
16700;DHT22;8466;52.286;21.124;2022-10-17T03:35:02;10.80;99.90
16700;DHT22;8466;52.286;21.124;2022-10-17T03:37:40;10.80;99.90
16700;DHT22;8466;52.286;21.124;2022-10-17T03:40:10;10.80;99.90
16700;DHT22;8466;52.286;21.124;2022-10-17T03:42:38;10.90;99.90
16700;DHT22;8466;52.286;21.124;2022-10-17T03:45:08;10.90;99.90
16700;DHT22;8466;52.286;21.124;2022-10-17T03:47:37;11.00;99.90
16700;DHT22;8466;52.286;21.124;2022-10-17T03:50:06;11.10;99.90
16700;DHT22;8466;52.286;21.124;2022-10-17T03:52:35;11.20;99.90
16700;DHT22;8466;52.286;21.124;2022-10-17T03:55:06;11.30;99.90
16700;DHT22;8466;52.286;21.124;2022-10-17T03:57:35;11.40;99.90
16700;DHT22;8466;52.286;21.124;2022-10-17T04:00:10;11.50;99.90
16700;DHT22;8466;52.286;21.124;2022-10-17T04:02:39;11.60;99.90
16700;DHT22;8466;52.286;21.124;2022-10-17T04:05:08;11.60;99.90
16700;DHT22;8466;52.286;21.124;2022-10-17T04:07:37;11.60;99.90
16700;DHT22;8466;52.286;21.124;2022-10-17T04:10:08;11.70;99.90
16700;DHT22;8466;52.286;21.124;2022-10-17T04:12:37;11.70;99.90
16700;DHT22;8466;52.286;21.124;2022-10-17T04:15:06;11.80;99.90
16700;DHT22;8466;52.286;21.124;2022-10-17T04:17:35;11.80;99.90
16700;DHT22;8466;52.286;21.124;2022-10-17T04:20:05;11.80;99.90
16700;DHT22;8466;52.286;21.124;2022-10-17T04:22:34;11.70;99.90
16700;DHT22;8466;52.286;21.124;2022-10-17T04:25:08;11.80;99.90
16700;DHT22;8466;52.286;21.124;2022-10-17T04:27:37;11.80;99.90
16700;DHT22;8466;52.286;21.124;2022-10-17T04:30:06;11.80;99.90
16700;DHT22;8466;52.286;21.124;2022-10-17T04:32:36;11.80;99.90
16700;DHT22;8466;52.286;21.124;2022-10-17T04:35:06;11.80;99.90
16700;DHT22;8466;52.286;21.124;2022-10-17T04:37:37;11.90;99.90
16700;DHT22;8466;52.286;21.124;2022-10-17T04:40:10;11.90;99.90
16700;DHT22;8466;52.286;21.124;2022-10-17T04:42:39;11.90;99.90
16700;DHT22;8466;52.286;21.124;2022-10-17T04:45:08;11.90;99.90
16700;DHT22;8466;52.286;21.124;2022-10-17T04:47:38;11.90;99.90
16700;DHT22;8466;52.286;21.124;2022-10-17T04:50:08;11.80;99.90
16700;DHT22;8466;52.286;21.124;2022-10-17T04:52:38;11.80;99.90
16700;DHT22;8466;52.286;21.124;2022-10-17T04:55:10;11.80;99.90
16700;DHT22;8466;52.286;21.124;2022-10-17T04:57:39;11.90;99.90
16700;DHT22;8466;52.286;21.124;2022-10-17T05:00:09;11.90;99.90
16700;DHT22;8466;52.286;21.124;2022-10-17T05:02:40;11.90;99.90
16700;DHT22;8466;52.286;21.124;2022-10-17T05:05:15;12.00;99.90
16700;DHT22;8466;52.286;21.124;2022-10-17T05:07:44;12.00;99.90
16700;DHT22;8466;52.286;21.124;2022-10-17T05:10:15;12.00;99.90
16700;DHT22;8466;52.286;21.124;2022-10-17T05:12:47;12.00;99.90
16700;DHT22;8466;52.286;21.124;2022-10-17T05:15:16;12.00;99.90
16700;DHT22;8466;52.286;21.124;2022-10-17T05:17:45;12.10;99.90
16700;DHT22;8466;52.286;21.124;2022-10-17T05:20:14;12.10;99.90
16700;DHT22;8466;52.286;21.124;2022-10-17T05:22:46;12.20;99.90
16700;DHT22;8466;52.286;21.124;2022-10-17T05:25:16;12.20;99.90
16700;DHT22;8466;52.286;21.124;2022-10-17T05:27:45;12.30;99.90
16700;DHT22;8466;52.286;21.124;2022-10-17T05:30:15;12.30;99.90
16700;DHT22;8466;52.286;21.124;2022-10-17T05:32:44;12.40;99.90
16700;DHT22;8466;52.286;21.124;2022-10-17T05:35:12;12.30;99.90
16700;DHT22;8466;52.286;21.124;2022-10-17T05:37:41;12.30;99.90
16700;DHT22;8466;52.286;21.124;2022-10-17T05:40:11;12.20;99.90
16700;DHT22;8466;52.286;21.124;2022-10-17T05:42:45;12.30;99.90
16700;DHT22;8466;52.286;21.124;2022-10-17T05:45:14;12.30;99.90
16700;DHT22;8466;52.286;21.124;2022-10-17T05:47:43;12.30;99.90
16700;DHT22;8466;52.286;21.124;2022-10-17T05:50:12;12.30;99.90
16700;DHT22;8466;52.286;21.124;2022-10-17T05:52:41;12.30;99.90
16700;DHT22;8466;52.286;21.124;2022-10-17T05:55:13;12.30;99.90
16700;DHT22;8466;52.286;21.124;2022-10-17T05:57:43;12.40;99.90
16700;DHT22;8466;52.286;21.124;2022-10-17T06:00:13;12.50;99.90
16700;DHT22;8466;52.286;21.124;2022-10-17T06:02:42;12.70;99.90
16700;DHT22;8466;52.286;21.124;2022-10-17T06:05:12;12.70;99.90
16700;DHT22;8466;52.286;21.124;2022-10-17T06:07:41;12.90;99.90
16700;DHT22;8466;52.286;21.124;2022-10-17T06:10:11;12.90;99.90
16700;DHT22;8466;52.286;21.124;2022-10-17T06:12:44;12.90;99.90
16700;DHT22;8466;52.286;21.124;2022-10-17T06:15:12;12.90;99.90
16700;DHT22;8466;52.286;21.124;2022-10-17T06:17:41;12.80;99.90
16700;DHT22;8466;52.286;21.124;2022-10-17T06:20:10;12.90;99.90
16700;DHT22;8466;52.286;21.124;2022-10-17T06:22:39;12.90;99.90
16700;DHT22;8466;52.286;21.124;2022-10-17T06:25:08;12.80;99.90
16700;DHT22;8466;52.286;21.124;2022-10-17T06:27:37;12.90;99.90
16700;DHT22;8466;52.286;21.124;2022-10-17T06:30:08;13.00;99.90
16700;DHT22;8466;52.286;21.124;2022-10-17T06:32:37;13.00;99.90
16700;DHT22;8466;52.286;21.124;2022-10-17T06:35:06;13.10;99.90
16700;DHT22;8466;52.286;21.124;2022-10-17T06:37:35;13.10;99.90
16700;DHT22;8466;52.286;21.124;2022-10-17T06:40:05;13.20;99.90
16700;DHT22;8466;52.286;21.124;2022-10-17T06:42:36;13.30;99.90
16700;DHT22;8466;52.286;21.124;2022-10-17T06:45:08;13.40;99.90
16700;DHT22;8466;52.286;21.124;2022-10-17T06:47:37;13.50;99.90
16700;DHT22;8466;52.286;21.124;2022-10-17T06:50:06;13.50;99.90
16700;DHT22;8466;52.286;21.124;2022-10-17T06:52:35;13.60;99.90
16700;DHT22;8466;52.286;21.124;2022-10-17T06:55:05;13.70;99.90
16700;DHT22;8466;52.286;21.124;2022-10-17T06:57:34;13.80;99.90
16700;DHT22;8466;52.286;21.124;2022-10-17T07:00:03;13.90;99.90
16700;DHT22;8466;52.286;21.124;2022-10-17T07:02:34;14.00;99.90
16700;DHT22;8466;52.286;21.124;2022-10-17T07:05:03;14.00;99.90
16700;DHT22;8466;52.286;21.124;2022-10-17T07:07:32;14.10;99.90
16700;DHT22;8466;52.286;21.124;2022-10-17T07:10:05;14.10;99.90
16700;DHT22;8466;52.286;21.124;2022-10-17T07:12:35;14.20;99.90
16700;DHT22;8466;52.286;21.124;2022-10-17T07:15:04;14.50;99.90
16700;DHT22;8466;52.286;21.124;2022-10-17T07:17:34;14.40;99.90
16700;DHT22;8466;52.286;21.124;2022-10-17T07:20:03;14.40;99.90
16700;DHT22;8466;52.286;21.124;2022-10-17T07:22:32;14.50;99.90
16700;DHT22;8466;52.286;21.124;2022-10-17T07:25:01;14.60;99.90
16700;DHT22;8466;52.286;21.124;2022-10-17T07:27:29;14.60;99.90
16700;DHT22;8466;52.286;21.124;2022-10-17T07:29:58;14.70;99.90
16700;DHT22;8466;52.286;21.124;2022-10-17T07:32:27;14.70;99.90
16700;DHT22;8466;52.286;21.124;2022-10-17T07:34:58;14.80;99.90
16700;DHT22;8466;52.286;21.124;2022-10-17T07:37:27;14.80;99.90
16700;DHT22;8466;52.286;21.124;2022-10-17T07:39:56;14.80;99.90
16700;DHT22;8466;52.286;21.124;2022-10-17T07:42:25;14.90;99.90
16700;DHT22;8466;52.286;21.124;2022-10-17T07:44:55;15.00;99.90
16700;DHT22;8466;52.286;21.124;2022-10-17T07:47:23;14.90;99.90
16700;DHT22;8466;52.286;21.124;2022-10-17T07:49:53;14.90;99.90
16700;DHT22;8466;52.286;21.124;2022-10-17T07:52:23;14.90;99.90
16700;DHT22;8466;52.286;21.124;2022-10-17T07:54:51;14.80;99.90
16700;DHT22;8466;52.286;21.124;2022-10-17T07:57:20;14.90;99.90
16700;DHT22;8466;52.286;21.124;2022-10-17T07:59:49;14.90;99.90
16700;DHT22;8466;52.286;21.124;2022-10-17T08:02:20;15.00;99.90
16700;DHT22;8466;52.286;21.124;2022-10-17T08:04:50;15.20;99.90
16700;DHT22;8466;52.286;21.124;2022-10-17T08:07:19;15.60;99.90
16700;DHT22;8466;52.286;21.124;2022-10-17T08:09:56;15.80;99.90
16700;DHT22;8466;52.286;21.124;2022-10-17T08:12:25;16.10;99.90
16700;DHT22;8466;52.286;21.124;2022-10-17T08:14:55;16.30;99.90
16700;DHT22;8466;52.286;21.124;2022-10-17T08:17:23;16.50;99.90
16700;DHT22;8466;52.286;21.124;2022-10-17T08:19:52;16.60;99.90
16700;DHT22;8466;52.286;21.124;2022-10-17T08:22:22;16.60;99.90
16700;DHT22;8466;52.286;21.124;2022-10-17T08:24:50;16.50;99.90
16700;DHT22;8466;52.286;21.124;2022-10-17T08:27:21;16.40;99.90
16700;DHT22;8466;52.286;21.124;2022-10-17T08:29:51;16.20;99.90
16700;DHT22;8466;52.286;21.124;2022-10-17T08:32:22;16.20;99.90
16700;DHT22;8466;52.286;21.124;2022-10-17T08:34:53;16.20;99.90
16700;DHT22;8466;52.286;21.124;2022-10-17T08:37:22;16.20;99.90
16700;DHT22;8466;52.286;21.124;2022-10-17T08:39:51;16.20;99.90
16700;DHT22;8466;52.286;21.124;2022-10-17T08:42:36;16.30;99.90
16700;DHT22;8466;52.286;21.124;2022-10-17T08:45:22;16.40;99.90
16700;DHT22;8466;52.286;21.124;2022-10-17T08:47:57;16.40;99.90
16700;DHT22;8466;52.286;21.124;2022-10-17T08:50:31;16.40;99.90
16700;DHT22;8466;52.286;21.124;2022-10-17T08:53:05;16.40;99.90
16700;DHT22;8466;52.286;21.124;2022-10-17T08:55:38;16.40;99.90
16700;DHT22;8466;52.286;21.124;2022-10-17T08:58:14;16.40;99.90
16700;DHT22;8466;52.286;21.124;2022-10-17T09:00:49;16.40;99.90
16700;DHT22;8466;52.286;21.124;2022-10-17T09:03:31;16.40;99.90
16700;DHT22;8466;52.286;21.124;2022-10-17T09:06:14;16.30;99.90
16700;DHT22;8466;52.286;21.124;2022-10-17T09:08:52;16.40;99.90
16700;DHT22;8466;52.286;21.124;2022-10-17T09:11:36;16.40;99.90
16700;DHT22;8466;52.286;21.124;2022-10-17T09:14:26;16.40;99.90
16700;DHT22;8466;52.286;21.124;2022-10-17T09:17:11;16.50;99.90
16700;DHT22;8466;52.286;21.124;2022-10-17T09:19:47;16.50;99.90
16700;DHT22;8466;52.286;21.124;2022-10-17T09:22:20;16.50;99.90
16700;DHT22;8466;52.286;21.124;2022-10-17T09:24:52;16.50;99.90
16700;DHT22;8466;52.286;21.124;2022-10-17T09:27:26;16.60;99.90
16700;DHT22;8466;52.286;21.124;2022-10-17T09:30:13;16.70;99.90
16700;DHT22;8466;52.286;21.124;2022-10-17T09:33:10;16.80;99.90
16700;DHT22;8466;52.286;21.124;2022-10-17T09:36:00;16.90;99.90
16700;DHT22;8466;52.286;21.124;2022-10-17T09:38:38;17.00;99.90
16700;DHT22;8466;52.286;21.124;2022-10-17T09:41:15;17.10;99.90
16700;DHT22;8466;52.286;21.124;2022-10-17T09:44:19;17.10;99.90
16700;DHT22;8466;52.286;21.124;2022-10-17T09:47:07;17.20;99.90
16700;DHT22;8466;52.286;21.124;2022-10-17T09:49:40;17.20;99.90
16700;DHT22;8466;52.286;21.124;2022-10-17T09:52:13;17.30;99.90
16700;DHT22;8466;52.286;21.124;2022-10-17T09:54:44;17.30;99.90
16700;DHT22;8466;52.286;21.124;2022-10-17T09:57:15;17.40;99.90
16700;DHT22;8466;52.286;21.124;2022-10-17T09:59:46;17.50;99.90
16700;DHT22;8466;52.286;21.124;2022-10-17T10:02:21;17.60;99.90
16700;DHT22;8466;52.286;21.124;2022-10-17T10:04:56;17.60;99.90
16700;DHT22;8466;52.286;21.124;2022-10-17T10:07:35;17.60;99.90
16700;DHT22;8466;52.286;21.124;2022-10-17T10:10:06;17.70;99.90
16700;DHT22;8466;52.286;21.124;2022-10-17T10:12:37;17.80;99.90
16700;DHT22;8466;52.286;21.124;2022-10-17T10:15:31;17.80;99.90
16700;DHT22;8466;52.286;21.124;2022-10-17T10:18:06;17.90;99.90
16700;DHT22;8466;52.286;21.124;2022-10-17T10:21:04;17.90;99.90
16700;DHT22;8466;52.286;21.124;2022-10-17T10:23:33;18.00;99.90
16700;DHT22;8466;52.286;21.124;2022-10-17T10:26:21;18.00;99.90
16700;DHT22;8466;52.286;21.124;2022-10-17T10:28:53;18.10;99.90
16700;DHT22;8466;52.286;21.124;2022-10-17T10:31:32;18.20;99.90
16700;DHT22;8466;52.286;21.124;2022-10-17T10:34:13;18.30;99.90
16700;DHT22;8466;52.286;21.124;2022-10-17T10:36:55;18.40;99.90
16700;DHT22;8466;52.286;21.124;2022-10-17T10:39:30;18.40;99.90
16700;DHT22;8466;52.286;21.124;2022-10-17T10:42:01;18.50;99.90
16700;DHT22;8466;52.286;21.124;2022-10-17T10:44:32;18.60;99.90
16700;DHT22;8466;52.286;21.124;2022-10-17T10:47:13;18.70;99.90
16700;DHT22;8466;52.286;21.124;2022-10-17T10:49:45;18.70;99.90
16700;DHT22;8466;52.286;21.124;2022-10-17T10:52:39;18.90;99.90
16700;DHT22;8466;52.286;21.124;2022-10-17T10:55:18;19.00;99.90
16700;DHT22;8466;52.286;21.124;2022-10-17T10:57:52;19.10;99.90
16700;DHT22;8466;52.286;21.124;2022-10-17T11:00:25;19.30;99.90
16700;DHT22;8466;52.286;21.124;2022-10-17T11:03:03;19.40;99.90
16700;DHT22;8466;52.286;21.124;2022-10-17T11:05:43;19.60;99.90
16700;DHT22;8466;52.286;21.124;2022-10-17T11:08:18;19.70;99.90
16700;DHT22;8466;52.286;21.124;2022-10-17T11:11:15;19.80;99.90
16700;DHT22;8466;52.286;21.124;2022-10-17T11:13:49;19.90;99.90
16700;DHT22;8466;52.286;21.124;2022-10-17T11:16:30;20.00;99.90
16700;DHT22;8466;52.286;21.124;2022-10-17T11:19:08;20.10;99.90
16700;DHT22;8466;52.286;21.124;2022-10-17T11:21:45;20.20;99.90
16700;DHT22;8466;52.286;21.124;2022-10-17T11:24:21;20.20;99.90
16700;DHT22;8466;52.286;21.124;2022-10-17T11:26:55;20.30;99.90
16700;DHT22;8466;52.286;21.124;2022-10-17T11:29:28;20.30;99.90
16700;DHT22;8466;52.286;21.124;2022-10-17T11:32:02;20.30;99.90
16700;DHT22;8466;52.286;21.124;2022-10-17T11:34:39;20.20;99.90
16700;DHT22;8466;52.286;21.124;2022-10-17T11:37:14;20.20;99.90
16700;DHT22;8466;52.286;21.124;2022-10-17T11:39:50;20.20;99.90
16700;DHT22;8466;52.286;21.124;2022-10-17T11:42:23;20.20;99.90
16700;DHT22;8466;52.286;21.124;2022-10-17T11:44:59;20.10;99.90
16700;DHT22;8466;52.286;21.124;2022-10-17T11:47:37;20.10;99.90
16700;DHT22;8466;52.286;21.124;2022-10-17T11:50:19;20.10;99.90
16700;DHT22;8466;52.286;21.124;2022-10-17T11:53:13;20.10;99.90
16700;DHT22;8466;52.286;21.124;2022-10-17T11:55:47;20.10;99.90
16700;DHT22;8466;52.286;21.124;2022-10-17T11:58:27;20.10;99.90
16700;DHT22;8466;52.286;21.124;2022-10-17T12:01:21;20.10;99.90
16700;DHT22;8466;52.286;21.124;2022-10-17T12:04:11;20.20;99.90
16700;DHT22;8466;52.286;21.124;2022-10-17T12:06:55;20.20;99.90
16700;DHT22;8466;52.286;21.124;2022-10-17T12:09:33;20.20;99.90
16700;DHT22;8466;52.286;21.124;2022-10-17T12:12:04;20.20;99.90
16700;DHT22;8466;52.286;21.124;2022-10-17T12:14:38;20.20;99.90
16700;DHT22;8466;52.286;21.124;2022-10-17T12:17:38;20.20;99.90
16700;DHT22;8466;52.286;21.124;2022-10-17T12:20:30;20.20;99.90
16700;DHT22;8466;52.286;21.124;2022-10-17T12:23:16;20.30;99.90
16700;DHT22;8466;52.286;21.124;2022-10-17T12:25:50;20.40;99.90
16700;DHT22;8466;52.286;21.124;2022-10-17T12:28:27;20.40;99.90
16700;DHT22;8466;52.286;21.124;2022-10-17T12:30:59;20.40;99.90
16700;DHT22;8466;52.286;21.124;2022-10-17T12:33:32;20.30;99.90
16700;DHT22;8466;52.286;21.124;2022-10-17T12:39:40;20.20;99.90
16700;DHT22;8466;52.286;21.124;2022-10-17T12:42:29;20.10;99.90
16700;DHT22;8466;52.286;21.124;2022-10-17T12:44:58;20.00;99.90
16700;DHT22;8466;52.286;21.124;2022-10-17T12:47:35;20.00;99.90
16700;DHT22;8466;52.286;21.124;2022-10-17T12:53:06;20.00;99.90
16700;DHT22;8466;52.286;21.124;2022-10-17T12:55:45;19.90;99.90
16700;DHT22;8466;52.286;21.124;2022-10-17T12:58:15;19.80;99.90
16700;DHT22;8466;52.286;21.124;2022-10-17T13:00:50;19.70;99.90
16700;DHT22;8466;52.286;21.124;2022-10-17T13:03:43;19.60;99.90
16700;DHT22;8466;52.286;21.124;2022-10-17T13:06:18;19.60;99.90
16700;DHT22;8466;52.286;21.124;2022-10-17T13:08:51;19.60;99.90
16700;DHT22;8466;52.286;21.124;2022-10-17T13:11:32;19.60;99.90
16700;DHT22;8466;52.286;21.124;2022-10-17T13:14:12;19.60;99.90
16700;DHT22;8466;52.286;21.124;2022-10-17T13:16:51;19.70;99.90
16700;DHT22;8466;52.286;21.124;2022-10-17T13:19:21;19.70;99.90
16700;DHT22;8466;52.286;21.124;2022-10-17T13:21:51;19.60;99.90
16700;DHT22;8466;52.286;21.124;2022-10-17T13:24:28;19.60;99.90
16700;DHT22;8466;52.286;21.124;2022-10-17T13:26:57;19.60;99.90
16700;DHT22;8466;52.286;21.124;2022-10-17T13:29:28;19.60;99.90
16700;DHT22;8466;52.286;21.124;2022-10-17T13:32:00;19.70;99.90
16700;DHT22;8466;52.286;21.124;2022-10-17T13:34:31;19.80;99.90
16700;DHT22;8466;52.286;21.124;2022-10-17T13:37:02;19.80;99.90
16700;DHT22;8466;52.286;21.124;2022-10-17T13:39:34;19.80;99.90
16700;DHT22;8466;52.286;21.124;2022-10-17T13:42:30;19.70;99.90
16700;DHT22;8466;52.286;21.124;2022-10-17T13:45:01;19.70;99.90
16700;DHT22;8466;52.286;21.124;2022-10-17T13:47:35;19.70;99.90
16700;DHT22;8466;52.286;21.124;2022-10-17T13:50:06;19.60;99.90
16700;DHT22;8466;52.286;21.124;2022-10-17T13:53:16;19.50;99.90
16700;DHT22;8466;52.286;21.124;2022-10-17T13:55:53;19.50;99.90
16700;DHT22;8466;52.286;21.124;2022-10-17T13:58:44;19.40;99.90
16700;DHT22;8466;52.286;21.124;2022-10-17T14:01:15;19.40;99.90
16700;DHT22;8466;52.286;21.124;2022-10-17T14:03:46;19.30;99.90
16700;DHT22;8466;52.286;21.124;2022-10-17T14:06:28;19.30;99.90
16700;DHT22;8466;52.286;21.124;2022-10-17T14:08:59;19.20;99.90
16700;DHT22;8466;52.286;21.124;2022-10-17T14:11:32;19.20;99.90
16700;DHT22;8466;52.286;21.124;2022-10-17T14:14:05;19.10;99.90
16700;DHT22;8466;52.286;21.124;2022-10-17T14:16:39;19.10;99.90
16700;DHT22;8466;52.286;21.124;2022-10-17T14:19:19;19.00;99.90
16700;DHT22;8466;52.286;21.124;2022-10-17T14:21:53;19.00;99.90
16700;DHT22;8466;52.286;21.124;2022-10-17T14:24:29;18.90;99.90
16700;DHT22;8466;52.286;21.124;2022-10-17T14:26:59;18.80;99.90
16700;DHT22;8466;52.286;21.124;2022-10-17T14:29:29;18.80;99.90
16700;DHT22;8466;52.286;21.124;2022-10-17T14:32:06;18.70;99.90
16700;DHT22;8466;52.286;21.124;2022-10-17T14:34:37;18.70;99.90
16700;DHT22;8466;52.286;21.124;2022-10-17T14:37:11;18.60;99.90
16700;DHT22;8466;52.286;21.124;2022-10-17T14:39:40;18.50;99.90
16700;DHT22;8466;52.286;21.124;2022-10-17T14:42:17;18.40;99.90
16700;DHT22;8466;52.286;21.124;2022-10-17T14:44:48;18.40;99.90
16700;DHT22;8466;52.286;21.124;2022-10-17T14:47:25;18.30;99.90
16700;DHT22;8466;52.286;21.124;2022-10-17T14:50:21;18.30;99.90
16700;DHT22;8466;52.286;21.124;2022-10-17T14:53:05;18.20;99.90
16700;DHT22;8466;52.286;21.124;2022-10-17T14:55:34;18.20;99.90
16700;DHT22;8466;52.286;21.124;2022-10-17T14:58:15;18.10;99.90
16700;DHT22;8466;52.286;21.124;2022-10-17T15:00:44;18.10;99.90
16700;DHT22;8466;52.286;21.124;2022-10-17T15:03:14;18.10;99.90
16700;DHT22;8466;52.286;21.124;2022-10-17T15:05:45;18.00;99.90
16700;DHT22;8466;52.286;21.124;2022-10-17T15:08:15;18.00;99.90
16700;DHT22;8466;52.286;21.124;2022-10-17T15:10:46;17.90;99.90
16700;DHT22;8466;52.286;21.124;2022-10-17T15:13:17;17.90;99.90
16700;DHT22;8466;52.286;21.124;2022-10-17T15:15:57;17.70;99.90
16700;DHT22;8466;52.286;21.124;2022-10-17T15:18:27;17.60;99.90
16700;DHT22;8466;52.286;21.124;2022-10-17T15:20:55;17.50;99.90
16700;DHT22;8466;52.286;21.124;2022-10-17T15:23:38;17.50;99.90
16700;DHT22;8466;52.286;21.124;2022-10-17T15:26:13;17.40;99.90
16700;DHT22;8466;52.286;21.124;2022-10-17T15:28:42;17.30;99.90
16700;DHT22;8466;52.286;21.124;2022-10-17T15:31:12;17.20;99.90
16700;DHT22;8466;52.286;21.124;2022-10-17T15:33:43;17.20;99.90
16700;DHT22;8466;52.286;21.124;2022-10-17T15:36:23;17.10;99.90
16700;DHT22;8466;52.286;21.124;2022-10-17T15:38:53;17.00;99.90
16700;DHT22;8466;52.286;21.124;2022-10-17T15:41:24;17.00;99.90
16700;DHT22;8466;52.286;21.124;2022-10-17T15:43:53;16.90;99.90
16700;DHT22;8466;52.286;21.124;2022-10-17T15:46:24;16.80;99.90
16700;DHT22;8466;52.286;21.124;2022-10-17T15:48:55;16.80;99.90
16700;DHT22;8466;52.286;21.124;2022-10-17T15:51:24;16.70;99.90
16700;DHT22;8466;52.286;21.124;2022-10-17T15:53:52;16.60;99.90
16700;DHT22;8466;52.286;21.124;2022-10-17T15:56:23;16.60;99.90
16700;DHT22;8466;52.286;21.124;2022-10-17T15:58:52;16.50;99.90
16700;DHT22;8466;52.286;21.124;2022-10-17T16:01:29;16.40;99.90
16700;DHT22;8466;52.286;21.124;2022-10-17T16:04:00;16.30;99.90
16700;DHT22;8466;52.286;21.124;2022-10-17T16:06:28;16.30;99.90
16700;DHT22;8466;52.286;21.124;2022-10-17T16:08:57;16.20;99.90
16700;DHT22;8466;52.286;21.124;2022-10-17T16:11:29;16.10;99.90
16700;DHT22;8466;52.286;21.124;2022-10-17T16:14:01;16.10;99.90
16700;DHT22;8466;52.286;21.124;2022-10-17T16:16:30;16.00;99.90
16700;DHT22;8466;52.286;21.124;2022-10-17T16:19:00;16.00;99.90
16700;DHT22;8466;52.286;21.124;2022-10-17T16:21:31;15.90;99.90
16700;DHT22;8466;52.286;21.124;2022-10-17T16:24:00;15.90;99.90
16700;DHT22;8466;52.286;21.124;2022-10-17T16:26:29;15.90;99.90
16700;DHT22;8466;52.286;21.124;2022-10-17T16:28:58;15.80;99.90
16700;DHT22;8466;52.286;21.124;2022-10-17T16:31:32;15.70;99.90